Time;durP1;ratioP1;P1;durP2;ratioP2;P2;SDS_P1;SDS_P2;PMS_P1;PMS_P2;Temp;Humidity;BMP_temperature;BMP_pressure;BME280_temperature;BME280_humidity;BME280_pressure;Samples;Min_cycle;Max_cycle;Signal;HPM_P1;HPM_P2
2022/08/24 00:01:56;;;;;;;11.07;4.38;;;19.10;99.90;;;;;;5073882;28;20493;-78
2022/08/24 00:04:28;;;;;;;11.30;4.50;;;19.10;99.90;;;;;;5058227;28;20055;-80
2022/08/24 00:07:00;;;;;;;10.65;4.32;;;19.10;99.90;;;;;;5074964;28;20055;-77
2022/08/24 00:09:29;;;;;;;10.23;4.80;;;19.10;99.90;;;;;;5056363;28;20056;-78
2022/08/24 00:11:57;;;;;;;10.70;4.90;;;19.10;99.90;;;;;;5057351;28;20119;-79
2022/08/24 00:14:25;;;;;;;8.68;4.70;;;19.00;99.90;;;;;;5057535;28;20107;-77
2022/08/24 00:16:53;;;;;;;9.60;5.00;;;19.00;99.90;;;;;;5073623;28;20040;-81
2022/08/24 00:19:21;;;;;;;;;;;19.00;99.90;;;;;;5075097;28;20479;-78
2022/08/24 00:21:49;;;;;;;12.68;4.90;;;19.00;99.90;;;;;;5073468;28;19920;-78
2022/08/24 00:24:17;;;;;;;9.02;4.90;;;18.90;99.90;;;;;;5040462;28;20479;-78
2022/08/24 00:26:45;;;;;;;9.25;4.85;;;19.10;99.90;;;;;;5057216;28;20375;-79
2022/08/24 00:29:14;;;;;;;10.15;5.22;;;18.90;99.90;;;;;;5073459;28;20040;-80
2022/08/24 00:31:42;;;;;;;11.35;4.47;;;18.90;99.90;;;;;;5040442;28;20044;-79
2022/08/24 00:34:12;;;;;;;9.32;4.68;;;18.90;99.90;;;;;;5057228;28;20045;-80
2022/08/24 00:36:40;;;;;;;12.00;4.18;;;18.90;99.90;;;;;;5073449;28;20049;-79
2022/08/24 00:39:09;;;;;;;6.05;3.85;;;19.00;99.90;;;;;;5039950;28;20048;-79
2022/08/24 00:41:43;;;;;;;;;;;19.10;99.90;;;;;;5056126;28;20067;-79
2022/08/24 00:44:14;;;;;;;8.20;3.22;;;19.30;99.90;;;;;;5076393;28;19987;-78
2022/08/24 00:46:51;;;;;;;6.43;3.05;;;19.20;99.90;;;;;;5078637;28;20486;-80
2022/08/24 00:49:40;;;;;;;7.28;2.95;;;19.30;99.90;;;;;;5059851;28;20375;-80
2022/08/24 00:52:20;;;;;;;7.78;2.75;;;19.40;99.90;;;;;;5061078;28;20047;-80
2022/08/24 00:54:59;;;;;;;6.13;2.85;;;19.50;99.90;;;;;;5077433;28;20051;-80
2022/08/24 00:57:30;;;;;;;;;;;19.50;99.90;;;;;;5044701;28;20483;-80
2022/08/24 01:00:14;;;;;;;5.35;2.40;;;19.50;99.90;;;;;;5060584;28;19920;-80
2022/08/24 01:02:44;;;;;;;4.38;2.65;;;19.60;99.90;;;;;;5060035;28;20057;-80
2022/08/24 01:05:12;;;;;;;6.13;2.80;;;19.60;99.90;;;;;;5061090;28;20049;-80
2022/08/24 01:07:40;;;;;;;6.25;2.85;;;19.60;99.90;;;;;;5044198;28;20329;-79
2022/08/24 01:10:12;;;;;;;4.93;2.67;;;19.60;99.90;;;;;;5076975;28;20044;-77
2022/08/24 01:12:44;;;;;;;6.00;2.50;;;19.60;99.90;;;;;;5027923;28;20040;-78
2022/08/24 01:15:29;;;;;;;3.95;2.08;;;19.70;99.90;;;;;;5076803;28;20055;-81
2022/08/24 01:20:52;;;;;;;5.22;2.22;;;19.70;99.90;;;;;;5060156;28;20356;-77
2022/08/24 01:23:42;;;;;;;4.78;1.90;;;19.70;99.90;;;;;;5059375;28;20045;-80
2022/08/24 01:26:17;;;;;;;5.82;2.13;;;19.70;99.90;;;;;;5059947;28;20051;-81
2022/08/24 01:28:48;;;;;;;3.42;1.73;;;19.60;99.90;;;;;;5042961;28;20064;-79
2022/08/24 01:31:21;;;;;;;6.90;1.83;;;19.60;99.90;;;;;;5077312;28;20742;-81
2022/08/24 01:33:50;;;;;;;5.45;1.90;;;19.50;99.90;;;;;;5060678;28;20041;-80
2022/08/24 01:36:25;;;;;;;4.35;1.80;;;19.50;99.90;;;;;;5058983;28;20045;-79
2022/08/24 01:38:59;;;;;;;4.30;1.77;;;19.50;99.90;;;;;;5060083;28;20506;-80
2022/08/24 01:41:27;;;;;;;4.60;2.05;;;19.50;99.90;;;;;;5058879;28;20378;-80
2022/08/24 01:43:58;;;;;;;5.18;2.08;;;19.50;99.90;;;;;;5059779;28;20044;-78
2022/08/24 01:46:27;;;;;;;5.13;1.88;;;19.50;99.90;;;;;;5043546;28;20040;-79
2022/08/24 01:48:57;;;;;;;5.72;1.80;;;19.60;99.90;;;;;;5076325;28;20071;-79
2022/08/24 01:51:29;;;;;;;3.60;1.90;;;19.60;99.90;;;;;;5077283;28;20049;-78
2022/08/24 01:54:01;;;;;;;5.75;1.85;;;19.50;99.90;;;;;;5059607;28;20033;-79
2022/08/24 01:56:30;;;;;;;5.00;2.10;;;19.40;99.90;;;;;;5075378;28;20036;-80
2022/08/24 01:59:00;;;;;;;3.42;1.90;;;19.30;99.90;;;;;;5059590;28;20043;-80
2022/08/24 02:01:31;;;;;;;5.80;2.38;;;19.20;99.90;;;;;;5058611;28;20383;-78
2022/08/24 02:04:01;;;;;;;4.65;2.03;;;19.10;99.90;;;;;;5043019;28;20375;-79
2022/08/24 02:06:31;;;;;;;4.88;2.40;;;19.00;99.90;;;;;;5059319;28;20040;-78
2022/08/24 02:08:59;;;;;;;7.13;2.75;;;18.90;99.90;;;;;;5076147;28;20044;-79
2022/08/24 02:11:27;;;;;;;6.50;2.70;;;18.80;99.90;;;;;;5076850;28;20048;-80
2022/08/24 02:13:55;;;;;;;4.90;3.22;;;18.70;99.90;;;;;;5059246;28;20470;-78
2022/08/24 02:16:23;;;;;;;8.43;3.70;;;18.60;99.90;;;;;;5041804;28;20521;-80
2022/08/24 02:18:51;;;;;;;8.18;3.83;;;18.50;99.90;;;;;;5059134;28;20059;-79
2022/08/24 02:21:19;;;;;;;8.85;3.97;;;18.50;99.90;;;;;;5042844;28;20051;-77
2022/08/24 02:23:47;;;;;;;8.30;3.97;;;18.40;99.90;;;;;;5075535;28;20048;-81
2022/08/24 02:26:14;;;;;;;7.35;4.53;;;18.40;99.90;;;;;;5059439;28;20056;-78
2022/08/24 02:28:43;;;;;;;8.55;3.90;;;18.30;99.90;;;;;;5075599;28;20044;-77
2022/08/24 02:31:12;;;;;;;9.80;4.85;;;18.30;99.90;;;;;;5042338;28;20052;-80
2022/08/24 02:33:42;;;;;;;10.30;4.80;;;18.20;99.90;;;;;;5058770;28;20047;-79
2022/08/24 02:36:12;;;;;;;17.58;4.70;;;18.20;99.90;;;;;;5057973;28;20376;-80
2022/08/24 02:38:54;;;;;;;9.10;5.13;;;18.10;99.90;;;;;;5059158;28;20469;-80
2022/08/24 02:41:24;;;;;;;10.38;4.70;;;18.10;99.90;;;;;;5058762;28;20044;-80
2022/08/24 02:43:53;;;;;;;8.50;4.60;;;18.10;99.90;;;;;;5058576;28;20075;-80
2022/08/24 02:46:24;;;;;;;10.57;4.82;;;18.10;99.90;;;;;;5058966;28;20467;-78
2022/08/24 02:48:52;;;;;;;9.48;5.15;;;18.00;99.90;;;;;;5057750;28;20052;-80
2022/08/24 02:51:43;;;;;;;9.95;5.28;;;18.00;99.90;;;;;;5058579;28;20032;-78
2022/08/24 02:54:16;;;;;;;8.50;4.90;;;18.00;99.90;;;;;;5058784;28;20055;-80
2022/08/24 02:56:47;;;;;;;9.35;5.10;;;18.00;99.90;;;;;;5057406;28;20455;-79
2022/08/24 02:59:16;;;;;;;10.27;5.18;;;18.10;99.90;;;;;;5058607;28;20052;-81
2022/08/24 03:01:43;;;;;;;10.23;5.13;;;18.10;99.90;;;;;;5074755;28;20049;-80
2022/08/24 03:04:13;;;;;;;6.97;4.82;;;18.20;99.90;;;;;;5058211;28;20048;-81
2022/08/24 03:06:41;;;;;;;8.45;4.68;;;18.20;99.90;;;;;;5057998;28;20037;-79
2022/08/24 03:09:08;;;;;;;10.35;4.95;;;18.30;99.90;;;;;;5056551;28;20037;-78
2022/08/24 03:11:36;;;;;;;9.60;4.80;;;18.30;99.90;;;;;;5075757;28;20048;-78
2022/08/24 03:14:06;;;;;;;10.52;4.55;;;18.30;99.90;;;;;;5058071;28;20045;-80
2022/08/24 03:16:41;;;;;;;9.93;4.85;;;18.40;99.90;;;;;;5040928;28;20056;-77
2022/08/24 03:19:09;;;;;;;9.85;4.50;;;18.40;99.90;;;;;;5025212;28;20463;-80
2022/08/24 03:21:37;;;;;;;10.55;4.30;;;18.50;99.90;;;;;;5057061;28;20044;-78
2022/08/24 03:24:05;;;;;;;10.30;4.45;;;18.50;99.90;;;;;;5058251;28;20048;-81
2022/08/24 03:26:32;;;;;;;9.18;4.18;;;18.50;99.90;;;;;;5075482;28;20382;-80
2022/08/24 03:29:00;;;;;;;7.85;4.32;;;18.50;99.90;;;;;;5056723;28;20044;-78
2022/08/24 03:31:31;;;;;;;13.43;4.60;;;18.50;99.90;;;;;;5057682;28;20053;-80
2022/08/24 03:33:59;;;;;;;8.32;4.45;;;18.50;99.90;;;;;;5057763;28;20048;-78
2022/08/24 03:36:27;;;;;;;9.43;4.18;;;18.40;99.90;;;;;;5056981;28;20367;-80
2022/08/24 03:38:54;;;;;;;8.73;4.75;;;18.40;99.90;;;;;;5057583;28;20067;-77
2022/08/24 03:41:22;;;;;;;12.38;4.55;;;18.40;99.90;;;;;;5057640;28;20056;-81
2022/08/24 03:43:50;;;;;;;13.32;4.90;;;18.50;99.90;;;;;;5073988;28;20048;-76
2022/08/24 03:46:27;;;;;;;7.97;4.65;;;18.50;99.90;;;;;;5057557;28;20069;-79
2022/08/24 03:48:57;;;;;;;9.40;4.68;;;18.60;99.90;;;;;;5056687;28;20056;-80
2022/08/24 03:51:27;;;;;;;10.15;4.60;;;18.70;99.90;;;;;;5075381;28;20040;-77
2022/08/24 03:53:57;;;;;;;9.13;4.60;;;18.80;99.90;;;;;;5040561;28;20379;-79
2022/08/24 03:56:28;;;;;;;8.85;4.72;;;18.80;99.90;;;;;;5056602;28;20059;-77
2022/08/24 03:58:56;;;;;;;7.55;4.88;;;18.90;99.90;;;;;;5057322;28;20040;-80
2022/08/24 04:01:26;;;;;;;8.90;4.95;;;18.90;99.90;;;;;;5056816;28;20045;-76
2022/08/24 04:03:55;;;;;;;10.57;4.95;;;19.00;99.90;;;;;;5074810;28;20053;-79
2022/08/24 04:06:28;;;;;;;9.13;4.80;;;19.00;99.90;;;;;;5057632;28;20055;-78
2022/08/24 04:08:56;;;;;;;7.88;4.43;;;19.10;99.90;;;;;;5056294;28;20044;-78
2022/08/24 04:11:25;;;;;;;;;;;19.10;99.90;;;;;;5057756;28;20360;-79
2022/08/24 04:13:55;;;;;;;10.90;5.00;;;19.20;99.90;;;;;;5057135;28;19920;-78
2022/08/24 04:16:25;;;;;;;9.50;4.60;;;19.20;99.90;;;;;;5056069;28;20032;-77
2022/08/24 04:19:12;;;;;;;7.80;4.88;;;19.20;99.90;;;;;;5057065;28;20044;-77
2022/08/24 04:21:40;;;;;;;8.73;4.43;;;19.30;99.90;;;;;;5056006;28;20050;-81
2022/08/24 04:24:08;;;;;;;;;;;19.30;99.90;;;;;;5057577;28;20047;-79
2022/08/24 04:26:38;;;;;;;8.88;4.10;;;19.30;99.90;;;;;;5057257;28;19920;-79
2022/08/24 04:29:15;;;;;;;10.90;4.50;;;19.30;99.90;;;;;;5040771;28;20064;-79
2022/08/24 04:31:48;;;;;;;11.10;4.25;;;19.30;99.90;;;;;;5041421;28;20048;-81
2022/08/24 04:34:17;;;;;;;9.02;4.35;;;19.40;99.90;;;;;;5057144;28;20052;-78
2022/08/24 04:36:45;;;;;;;9.35;4.30;;;19.40;99.90;;;;;;5055788;28;20051;-80
2022/08/24 04:39:14;;;;;;;8.88;4.10;;;19.40;99.90;;;;;;5040779;28;20051;-77
2022/08/24 04:41:50;;;;;;;10.80;4.30;;;19.40;99.90;;;;;;5073621;28;20463;-78
2022/08/24 04:44:20;;;;;;;11.02;4.63;;;19.30;99.90;;;;;;5056871;28;20056;-80
2022/08/24 04:46:48;;;;;;;10.27;4.65;;;19.30;99.90;;;;;;5056817;28;20052;-77
2022/08/24 04:49:16;;;;;;;7.78;4.47;;;19.20;99.90;;;;;;5055623;28;20455;-79
2022/08/24 04:51:43;;;;;;;16.00;5.60;;;19.20;99.90;;;;;;5074542;28;20045;-79
2022/08/24 04:54:11;;;;;;;10.68;4.85;;;19.20;99.90;;;;;;5040365;28;20451;-81
2022/08/24 04:56:39;;;;;;;11.05;4.90;;;19.10;99.90;;;;;;5056087;28;20044;-81
2022/08/24 04:59:07;;;;;;;14.93;5.10;;;19.20;99.90;;;;;;5074553;28;20056;-79
2022/08/24 05:01:34;;;;;;;10.90;5.35;;;19.20;99.90;;;;;;5039052;28;20064;-77
2022/08/24 05:04:05;;;;;;;13.25;5.40;;;19.20;99.90;;;;;;5057250;28;20048;-80
2022/08/24 05:06:33;;;;;;;11.48;5.32;;;19.20;99.90;;;;;;5056620;28;20067;-78
2022/08/24 05:09:03;;;;;;;11.82;5.18;;;19.30;99.90;;;;;;5038879;28;20111;-79
2022/08/24 05:11:34;;;;;;;11.13;5.90;;;19.30;99.90;;;;;;5056791;28;20040;-80
2022/08/24 05:14:03;;;;;;;14.35;5.85;;;19.40;99.90;;;;;;5040090;28;20467;-79
2022/08/24 05:16:32;;;;;;;15.68;6.78;;;19.40;99.90;;;;;;5055613;28;20044;-81
2022/08/24 05:19:05;;;;;;;13.55;6.60;;;19.50;99.90;;;;;;5040362;28;20066;-80
2022/08/24 05:21:33;;;;;;;17.80;6.85;;;19.50;99.90;;;;;;5055848;28;20052;-79
2022/08/24 05:24:01;;;;;;;;;;;19.50;99.90;;;;;;5057149;28;20048;-78
2022/08/24 05:26:31;;;;;;;18.92;6.85;;;19.50;99.90;;;;;;5040454;28;19928;-77
2022/08/24 05:29:01;;;;;;;14.93;7.38;;;19.60;99.90;;;;;;5055274;28;20040;-80
2022/08/24 05:31:44;;;;;;;14.93;7.75;;;19.60;99.90;;;;;;5058565;28;20107;-78
2022/08/24 05:34:13;;;;;;;20.80;7.50;;;19.70;99.90;;;;;;5060246;28;20049;-78
2022/08/24 05:36:43;;;;;;;16.42;7.93;;;19.70;99.90;;;;;;5058972;28;20041;-77
2022/08/24 05:39:21;;;;;;;17.40;8.15;;;19.70;99.90;;;;;;5060751;28;20040;-80
2022/08/24 05:41:54;;;;;;;15.10;7.30;;;19.70;99.90;;;;;;5042712;28;20383;-78
2022/08/24 05:44:28;;;;;;;14.40;7.40;;;19.70;99.90;;;;;;5059171;28;20051;-79
2022/08/24 05:47:01;;;;;;;18.63;7.63;;;19.70;99.90;;;;;;5059985;28;20495;-77
2022/08/24 05:49:30;;;;;;;17.92;7.65;;;19.70;99.90;;;;;;5058598;28;20041;-78
2022/08/24 05:51:58;;;;;;;;;;;19.80;99.90;;;;;;5043696;28;20367;-78
2022/08/24 05:54:26;;;;;;;16.80;7.38;;;19.80;99.90;;;;;;5043087;28;19943;-80
2022/08/24 05:57:03;;;;;;;15.13;6.97;;;19.70;99.90;;;;;;5059089;28;20431;-79
2022/08/24 05:59:53;;;;;;;16.90;6.10;;;19.80;99.90;;;;;;5046558;28;20471;-78
2022/08/24 06:02:22;;;;;;;20.65;7.35;;;19.80;99.90;;;;;;5058251;28;20402;-79
2022/08/24 06:04:50;;;;;;;14.07;6.93;;;19.80;99.90;;;;;;5077304;28;20360;-80
2022/08/24 06:07:19;;;;;;;14.75;7.05;;;19.80;99.90;;;;;;5077113;28;20057;-80
2022/08/24 06:09:53;;;;;;;13.88;5.90;;;19.80;99.90;;;;;;5058484;28;20480;-79
2022/08/24 06:12:21;;;;;;;12.65;5.38;;;19.80;99.90;;;;;;5059252;28;20040;-79
2022/08/24 06:14:48;;;;;;;11.45;4.70;;;19.80;99.90;;;;;;5058785;28;20048;-79
2022/08/24 06:17:21;;;;;;;9.57;4.50;;;19.90;99.90;;;;;;5042915;28;20052;-80
2022/08/24 06:19:50;;;;;;;10.20;4.15;;;19.80;99.90;;;;;;5042525;28;20060;-80
2022/08/24 06:22:18;;;;;;;10.00;3.80;;;20.00;99.90;;;;;;5057891;28;20053;-78
2022/08/24 06:27:33;;;;;;;11.60;3.63;;;20.10;99.90;;;;;;5059162;28;20058;-80
2022/08/24 06:30:08;;;;;;;7.82;3.25;;;20.20;99.90;;;;;;5057643;28;20048;-78
2022/08/24 06:33:05;;;;;;;10.18;3.13;;;20.20;99.90;;;;;;5052885;28;20463;-79
2022/08/24 06:35:43;;;;;;;8.13;3.05;;;20.30;99.90;;;;;;5057826;28;20051;-76
2022/08/24 06:38:14;;;;;;;7.75;3.42;;;20.40;99.90;;;;;;5058195;28;20371;-79
2022/08/24 06:40:45;;;;;;;8.95;3.50;;;20.40;99.90;;;;;;5058604;28;20368;-79
2022/08/24 06:43:13;;;;;;;;;;;20.40;99.90;;;;;;5075060;28;20052;-79
2022/08/24 06:45:52;;;;;;;7.80;3.40;;;20.40;99.90;;;;;;5058369;28;19927;-79
2022/08/24 06:48:24;;;;;;;8.23;3.42;;;20.40;99.90;;;;;;5056518;28;20060;-79
2022/08/24 06:50:52;;;;;;;5.38;2.88;;;20.50;99.90;;;;;;5058033;28;20041;-76
2022/08/24 06:53:20;;;;;;;5.70;2.80;;;20.50;99.90;;;;;;5057753;28;20482;-77
2022/08/24 06:55:53;;;;;;;;;;;20.50;99.90;;;;;;5057678;28;20372;-78
2022/08/24 06:58:23;;;;;;;7.97;3.13;;;20.50;99.90;;;;;;5075542;28;19991;-77
2022/08/24 07:00:51;;;;;;;7.68;3.50;;;20.60;99.90;;;;;;5058325;28;20047;-78
2022/08/24 07:03:22;;;;;;;8.88;3.28;;;20.50;99.90;;;;;;5057109;28;20040;-77
2022/08/24 07:06:02;;;;;;;7.50;3.15;;;20.60;99.90;;;;;;5057783;28;20055;-77
2022/08/24 07:08:41;;;;;;;6.57;3.13;;;20.60;99.90;;;;;;5056820;28;20352;-78
2022/08/24 07:11:11;;;;;;;6.07;3.20;;;20.60;99.90;;;;;;5057979;28;20520;-77
2022/08/24 07:13:38;;;;;;;5.82;3.08;;;20.60;99.90;;;;;;5041074;28;20059;-77
2022/08/24 07:16:08;;;;;;;7.43;3.10;;;20.70;99.90;;;;;;5040251;28;20052;-77
2022/08/24 07:18:37;;;;;;;9.73;3.50;;;20.70;99.90;;;;;;5057804;28;20049;-78
2022/08/24 07:21:08;;;;;;;9.10;3.35;;;20.80;99.90;;;;;;5040732;28;20048;-79
2022/08/24 07:23:48;;;;;;;7.40;3.20;;;20.80;99.90;;;;;;5041595;28;20051;-78
2022/08/24 07:26:21;;;;;;;7.35;3.63;;;20.90;99.90;;;;;;5075028;28;20040;-78
2022/08/24 07:29:04;;;;;;;11.00;3.65;;;21.00;99.90;;;;;;5056446;28;20044;-79
2022/08/24 07:31:39;;;;;;;9.97;3.60;;;21.00;99.90;;;;;;5057272;28;20044;-78
2022/08/24 07:34:12;;;;;;;6.93;3.88;;;21.20;99.90;;;;;;5057241;28;20292;-75
2022/08/24 07:36:40;;;;;;;8.80;3.35;;;22.20;99.90;;;;;;5073881;28;20052;-75
2022/08/24 07:39:12;;;;;;;6.95;3.13;;;21.90;99.90;;;;;;5057366;28;20048;-73
2022/08/24 07:41:42;;;;;;;7.30;3.25;;;22.50;99.90;;;;;;5056166;28;20044;-73
2022/08/24 07:44:31;;;;;;;10.45;3.70;;;21.60;99.90;;;;;;5040782;28;20044;-75
2022/08/24 07:46:59;;;;;;;6.90;3.70;;;21.80;99.90;;;;;;5057273;28;20379;-75
2022/08/24 07:49:48;;;;;;;10.18;3.60;;;21.90;99.90;;;;;;5039077;28;20044;-74
2022/08/24 07:52:15;;;;;;;6.85;3.20;;;22.10;99.90;;;;;;5057196;28;20059;-75
2022/08/24 07:54:44;;;;;;;8.38;3.50;;;22.20;99.90;;;;;;5056531;28;20044;-76
2022/08/24 07:57:12;;;;;;;9.85;3.00;;;22.20;99.90;;;;;;5055959;28;20056;-75
2022/08/24 07:59:41;;;;;;;8.25;3.15;;;22.30;99.90;;;;;;5057042;28;20049;-78
2022/08/24 08:02:10;;;;;;;9.85;3.47;;;22.30;99.90;;;;;;5055867;28;20048;-77
2022/08/24 08:04:41;;;;;;;8.65;2.72;;;22.40;99.90;;;;;;5054790;28;20062;-77
2022/08/24 08:07:09;;;;;;;6.07;2.50;;;22.50;99.90;;;;;;5034787;28;20048;-76
2022/08/24 08:09:37;;;;;;;;;;;22.60;99.90;;;;;;5055736;28;20041;-78
2022/08/24 08:12:11;;;;;;;5.82;2.58;;;22.60;99.90;;;;;;5037095;28;19927;-75
2022/08/24 08:14:53;;;;;;;9.00;2.70;;;22.60;99.90;;;;;;5051314;28;20048;-77
2022/08/24 08:17:20;;;;;;;5.70;2.33;;;22.60;99.90;;;;;;5053619;28;20052;-78
2022/08/24 08:19:49;;;;;;;6.43;2.17;;;22.60;99.90;;;;;;5053790;28;20053;-76
2022/08/24 08:25:22;;;;;;;3.92;1.85;;;22.70;99.90;;;;;;5054494;28;20060;-79
2022/08/24 08:27:50;;;;;;;7.05;2.00;;;22.70;99.90;;;;;;5037185;28;20371;-75
2022/08/24 08:30:18;;;;;;;5.18;2.25;;;22.80;99.90;;;;;;5052451;28;20404;-74
2022/08/24 08:32:45;;;;;;;4.88;2.00;;;22.90;99.90;;;;;;5053491;28;20056;-80
2022/08/24 08:35:13;;;;;;;8.65;2.05;;;23.00;99.90;;;;;;5052213;28;20056;-76
2022/08/24 08:37:42;;;;;;;8.18;1.83;;;23.10;99.90;;;;;;5053180;28;20041;-76
2022/08/24 08:40:23;;;;;;;4.30;1.70;;;23.20;99.90;;;;;;5036593;28;20045;-79
2022/08/24 08:43:08;;;;;;;6.25;2.00;;;23.30;99.90;;;;;;5035526;28;20064;-78
2022/08/24 08:46:01;;;;;;;6.20;1.80;;;23.50;99.90;;;;;;5053224;28;20045;-76
2022/08/24 08:49:54;;;;;;;6.22;1.70;;;23.80;99.90;;;;;;5010560;28;20479;-85
2022/08/24 08:52:51;;;;;;;8.98;1.45;;;24.10;99.90;;;;;;4993154;28;20046;-75
2022/08/24 08:55:44;;;;;;;4.97;1.55;;;24.20;99.90;;;;;;5069190;28;20040;-75
2022/08/24 08:58:21;;;;;;;6.80;1.70;;;24.40;99.60;;;;;;5056838;28;20040;-80
2022/08/24 09:01:09;;;;;;;6.00;1.60;;;24.40;99.90;;;;;;5056551;28;20051;-83
2022/08/24 09:04:04;;;;;;;6.75;1.40;;;24.50;99.10;;;;;;5055610;28;20383;-84
2022/08/24 09:06:50;;;;;;;6.32;1.50;;;24.60;99.00;;;;;;5060667;28;20040;-75
2022/08/24 09:09:40;;;;;;;8.80;1.70;;;24.70;98.90;;;;;;5059363;28;20048;-74
2022/08/24 09:12:08;;;;;;;4.82;1.40;;;24.80;97.80;;;;;;5060813;28;20048;-75
2022/08/24 09:15:01;;;;;;;6.20;1.60;;;25.00;98.30;;;;;;5060614;28;20041;-75
2022/08/24 09:17:54;;;;;;;4.90;1.10;;;25.20;96.70;;;;;;5060350;28;20044;-81
2022/08/24 09:20:43;;;;;;;6.15;1.27;;;25.50;95.90;;;;;;5060787;28;20053;-78
2022/08/24 09:23:37;;;;;;;3.85;1.27;;;25.60;95.50;;;;;;5076700;28;20356;-76
2022/08/24 09:26:40;;;;;;;2.33;1.00;;;25.70;94.80;;;;;;4998969;28;20048;-77
2022/08/24 09:29:15;;;;;;;3.40;1.00;;;25.80;94.50;;;;;;5022803;28;20379;-78
2022/08/24 09:31:44;;;;;;;5.90;0.90;;;25.90;95.10;;;;;;5058056;28;20041;-76
2022/08/24 09:34:33;;;;;;;3.53;1.08;;;26.00;95.00;;;;;;5057765;28;20052;-82
2022/08/24 09:37:18;;;;;;;5.22;1.02;;;26.10;93.70;;;;;;5056359;28;20037;-75
2022/08/24 09:40:01;;;;;;;5.13;1.08;;;26.30;93.10;;;;;;5055762;28;20041;-77
2022/08/24 09:43:06;;;;;;;4.55;1.00;;;26.40;92.90;;;;;;5055158;28;20045;-76
2022/08/24 09:45:37;;;;;;;6.60;1.20;;;26.40;92.30;;;;;;5056952;28;20041;-76
2022/08/24 09:48:24;;;;;;;7.72;1.10;;;26.30;92.90;;;;;;5056927;28;20353;-76
2022/08/24 09:51:04;;;;;;;2.13;0.95;;;26.30;92.40;;;;;;5056455;28;20452;-75
2022/08/24 09:54:13;;;;;;;3.70;1.00;;;26.30;91.80;;;;;;5037920;28;20049;-77
2022/08/24 09:56:49;;;;;;;4.32;0.93;;;26.10;91.90;;;;;;4952353;28;20051;-77
2022/08/24 10:00:13;;;;;;;2.42;0.90;;;26.00;92.50;;;;;;5038516;28;20048;-77
2022/08/24 10:02:56;;;;;;;2.25;0.88;;;25.70;92.50;;;;;;5035398;28;20049;-78
2022/08/24 10:05:48;;;;;;;3.47;1.05;;;25.40;92.70;;;;;;5054011;28;20060;-78
2022/08/24 10:08:39;;;;;;;3.92;1.15;;;25.40;92.90;;;;;;5036806;28;20041;-78
2022/08/24 10:11:12;;;;;;;4.07;1.00;;;25.50;93.10;;;;;;5036941;28;20467;-79
2022/08/24 10:13:58;;;;;;;4.60;1.10;;;25.90;93.30;;;;;;5058005;28;20480;-77
2022/08/24 10:16:27;;;;;;;3.33;1.10;;;25.90;92.30;;;;;;5044141;28;20059;-76
2022/08/24 10:19:17;;;;;;;3.42;1.10;;;25.70;93.50;;;;;;5066849;28;20045;-78
2022/08/24 10:22:11;;;;;;;5.18;1.17;;;25.80;92.30;;;;;;5060955;28;20059;-71
2022/08/24 10:25:14;;;;;;;3.33;1.10;;;25.70;92.40;;;;;;5056229;28;20049;-76
2022/08/24 10:28:11;;;;;;;5.88;1.00;;;25.60;92.30;;;;;;5038570;28;20057;-74
2022/08/24 10:31:06;;;;;;;4.63;1.10;;;25.50;92.10;;;;;;5055956;28;20558;-75
2022/08/24 10:34:17;;;;;;;2.85;0.75;;;25.40;92.40;;;;;;5074269;28;20056;-77
2022/08/24 10:36:47;;;;;;;4.82;1.10;;;25.30;92.10;;;;;;5075277;28;20060;-76
2022/08/24 10:39:40;;;;;;;4.05;1.30;;;25.30;92.40;;;;;;5076260;28;20498;-76
2022/08/24 10:46:08;;;;;;;4.07;1.38;;;25.50;92.00;;;;;;5058712;28;20056;-77
2022/08/24 10:48:52;;;;;;;3.78;1.60;;;25.60;92.30;;;;;;5057236;28;20052;-78
2022/08/24 10:52:03;;;;;;;5.25;1.95;;;25.60;92.50;;;;;;5058941;28;20036;-77
2022/08/24 10:54:33;;;;;;;5.78;2.47;;;25.60;91.60;;;;;;4956963;28;20384;-78
2022/08/24 10:57:05;;;;;;;6.13;2.30;;;25.60;92.00;;;;;;5046691;28;20037;-77
2022/08/24 10:59:48;;;;;;;3.65;2.05;;;25.70;91.40;;;;;;5055954;28;20053;-77
2022/08/24 11:02:29;;;;;;;3.65;1.92;;;25.90;90.70;;;;;;5053296;28;20080;-78
2022/08/24 11:05:00;;;;;;;3.72;2.30;;;25.60;90.50;;;;;;5058045;28;20498;-78
2022/08/24 11:07:28;;;;;;;6.90;2.28;;;26.30;90.90;;;;;;5058913;28;20048;-78
2022/08/24 11:09:59;;;;;;;4.10;2.55;;;26.40;90.70;;;;;;5040068;28;20048;-78
2022/08/24 11:12:36;;;;;;;3.55;2.20;;;26.50;90.40;;;;;;5058857;28;20040;-78
2022/08/24 11:15:19;;;;;;;3.72;2.60;;;26.60;89.60;;;;;;5074686;28;20044;-78
2022/08/24 11:18:01;;;;;;;3.80;2.13;;;26.80;88.40;;;;;;5058290;28;20052;-78
2022/08/24 11:20:31;;;;;;;3.40;2.20;;;26.70;87.90;;;;;;5058529;28;20056;-79
2022/08/24 11:23:07;;;;;;;5.78;2.08;;;26.70;88.60;;;;;;5056653;28;20044;-79
2022/08/24 11:26:03;;;;;;;5.85;1.92;;;26.80;87.00;;;;;;5041953;28;20052;-78
2022/08/24 11:28:41;;;;;;;5.72;2.08;;;26.70;87.20;;;;;;5055932;28;20057;-77
2022/08/24 11:31:20;;;;;;;3.65;2.00;;;26.50;87.70;;;;;;5075379;28;20076;-78
2022/08/24 11:33:59;;;;;;;5.47;2.72;;;26.40;87.90;;;;;;5058043;28;20060;-78
2022/08/24 11:36:33;;;;;;;4.60;2.50;;;26.40;88.70;;;;;;5074362;28;20049;-78
2022/08/24 11:39:20;;;;;;;7.78;2.33;;;26.20;89.30;;;;;;5075290;28;20044;-78
2022/08/24 11:42:06;;;;;;;5.40;2.22;;;26.00;88.70;;;;;;5073990;28;20622;-78
2022/08/24 11:44:53;;;;;;;3.53;2.30;;;26.00;89.70;;;;;;5041611;28;20052;-79
2022/08/24 11:47:43;;;;;;;3.63;2.22;;;25.80;89.80;;;;;;5075057;28;20055;-78
2022/08/24 11:50:48;;;;;;;4.63;2.28;;;25.70;90.20;;;;;;5056184;28;20471;-79
2022/08/24 11:53:42;;;;;;;3.45;2.10;;;25.70;90.10;;;;;;5075174;28;20048;-77
2022/08/24 11:56:30;;;;;;;4.60;1.50;;;25.90;90.10;;;;;;5073864;28;20052;-79
2022/08/24 11:59:06;;;;;;;3.95;1.70;;;25.80;88.30;;;;;;5057893;28;20044;-78
2022/08/24 12:01:46;;;;;;;3.72;1.67;;;25.80;89.80;;;;;;5074131;28;20063;-79
2022/08/24 12:04:36;;;;;;;4.57;1.40;;;26.60;89.90;;;;;;5057756;28;20067;-78
2022/08/24 12:07:25;;;;;;;6.18;1.60;;;25.70;89.50;;;;;;5057152;28;20044;-79
2022/08/24 12:10:14;;;;;;;5.55;1.55;;;25.70;89.40;;;;;;5073782;28;20052;-78
2022/08/24 12:13:15;;;;;;;3.78;1.33;;;25.80;88.50;;;;;;5074812;28;20048;-79
2022/08/24 12:16:07;;;;;;;2.55;1.27;;;25.70;88.50;;;;;;5073550;28;20051;-78
2022/08/24 12:18:53;;;;;;;3.13;1.20;;;26.10;88.00;;;;;;5074711;28;20055;-78
2022/08/24 12:21:28;;;;;;;3.58;1.42;;;26.40;87.70;;;;;;5075274;28;20044;-78
2022/08/24 12:24:02;;;;;;;3.13;1.45;;;26.50;87.70;;;;;;5074850;28;20467;-80
2022/08/24 12:26:55;;;;;;;2.75;1.42;;;26.70;87.00;;;;;;5074999;28;20048;-80
2022/08/24 12:29:43;;;;;;;2.40;1.40;;;26.80;85.60;;;;;;5073535;28;20051;-79
2022/08/24 12:32:13;;;;;;;;;;;26.90;85.70;;;;;;5074825;28;20045;-78
2022/08/24 12:34:57;;;;;;;2.92;1.10;;;26.90;85.10;;;;;;5075024;28;20331;-78
2022/08/24 12:37:43;;;;;;;2.33;1.30;;;27.00;86.20;;;;;;5074482;28;20040;-79
2022/08/24 12:40:35;;;;;;;4.10;1.30;;;27.10;85.10;;;;;;5076935;28;20371;-78
2022/08/24 12:43:36;;;;;;;2.95;1.20;;;27.20;84.20;;;;;;5077670;28;20378;-77
2022/08/24 12:46:05;;;;;;;1.98;1.30;;;27.20;83.70;;;;;;5078392;28;20059;-78
2022/08/24 12:49:07;;;;;;;6.25;1.40;;;27.30;85.10;;;;;;5077304;28;20048;-78
2022/08/24 12:52:08;;;;;;;2.70;1.40;;;27.40;83.50;;;;;;5078208;28;20045;-78
2022/08/24 12:54:44;;;;;;;3.22;1.33;;;27.60;82.60;;;;;;5060677;28;20055;-79
2022/08/24 12:57:38;;;;;;;2.88;1.35;;;27.60;83.90;;;;;;5077781;28;20048;-79
2022/08/24 13:00:44;;;;;;;5.93;1.77;;;27.50;83.70;;;;;;5078406;28;20462;-79
2022/08/24 13:03:34;;;;;;;2.58;1.23;;;27.50;83.10;;;;;;5057544;28;20057;-78
2022/08/24 13:06:26;;;;;;;3.05;1.20;;;27.60;82.80;;;;;;5060906;28;20135;-78
2022/08/24 13:09:12;;;;;;;2.78;1.20;;;27.70;81.10;;;;;;5063661;28;20067;-78
2022/08/24 13:11:40;;;;;;;4.75;1.90;;;27.70;81.50;;;;;;5060652;28;20037;-79
2022/08/24 13:14:18;;;;;;;7.15;1.40;;;29.40;84.10;;;;;;5077993;28;20037;-78
2022/08/24 13:16:55;;;;;;;3.60;1.20;;;28.30;82.90;;;;;;5076835;28;20040;-78
2022/08/24 13:19:22;;;;;;;4.15;1.40;;;27.50;82.20;;;;;;5060502;28;20066;-79
2022/08/24 13:21:57;;;;;;;2.85;1.50;;;27.50;82.40;;;;;;5076704;28;20479;-79
2022/08/24 13:24:28;;;;;;;89.13;8.50;;;27.60;81.90;;;;;;5078025;28;20048;-78
2022/08/24 13:27:11;;;;;;;2.45;1.20;;;27.60;82.20;;;;;;5077945;28;20044;-78
2022/08/24 13:29:41;;;;;;;2.28;1.10;;;27.70;82.10;;;;;;5076613;28;20375;-78
2022/08/24 13:32:24;;;;;;;3.33;1.30;;;27.90;82.10;;;;;;5059838;28;20356;-79
2022/08/24 13:34:58;;;;;;;2.40;1.20;;;28.10;80.70;;;;;;5076582;28;20045;-77
2022/08/24 13:37:27;;;;;;;2.10;1.00;;;28.30;81.00;;;;;;5077617;28;20041;-78
2022/08/24 13:40:21;;;;;;;5.78;1.20;;;28.50;80.50;;;;;;5077520;28;20049;-78
2022/08/24 13:43:12;;;;;;;30.15;3.33;;;28.60;80.40;;;;;;5076419;28;20059;-79
2022/08/24 13:45:56;;;;;;;8.57;1.13;;;28.60;78.70;;;;;;5077447;28;20063;-80
2022/08/24 13:48:42;;;;;;;1.88;0.82;;;28.50;78.10;;;;;;5043013;28;20063;-78